createdAt,value
2023-03-05T00:00:31.263Z,100329.78
2023-03-05T00:03:47.370Z,100328.91
2023-03-05T00:06:55.868Z,100326.25
2023-03-05T00:10:06.332Z,100329.78
2023-03-05T00:13:21.262Z,100336.75
2023-03-05T00:16:30.317Z,100309.62
2023-03-05T00:19:45.291Z,100315.78
2023-03-05T00:23:00.327Z,100334.16
2023-03-05T00:26:02.253Z,100330.66
2023-03-05T00:29:22.338Z,100321.87
2023-03-05T00:32:30.297Z,100312.25
2023-03-05T00:35:53.388Z,100330.66
2023-03-05T00:39:08.356Z,100327.12
2023-03-05T00:42:17.514Z,100333.28
2023-03-05T00:45:26.289Z,100333.25
2023-03-05T00:48:35.125Z,100335.87
2023-03-05T00:51:43.302Z,100306.97
2023-03-05T00:54:51.771Z,100324.50
2023-03-05T00:58:00.288Z,100310.47
2023-03-05T01:01:09.477Z,100313.09
2023-03-05T01:04:17.329Z,100301.72
2023-03-05T01:07:32.280Z,100312.25
2023-03-05T01:10:47.417Z,100330.62
2023-03-05T01:13:49.629Z,100307.00
2023-03-05T01:17:04.263Z,100316.62
2023-03-05T01:20:13.913Z,100300.00
2023-03-05T01:23:28.277Z,100325.41
2023-03-05T01:26:36.925Z,100314.91
2023-03-05T01:29:45.295Z,100322.78
2023-03-05T01:32:55.022Z,100319.28
2023-03-05T01:36:03.254Z,100325.41
2023-03-05T01:39:18.614Z,100298.25
2023-03-05T01:42:37.491Z,100317.53
2023-03-05T01:46:15.314Z,100309.62
2023-03-05T01:49:30.922Z,100311.41
2023-03-05T01:52:49.297Z,100316.66
2023-03-05T01:55:50.971Z,100308.75
2023-03-05T01:59:08.795Z,100308.78
2023-03-05T02:02:19.222Z,100303.50
2023-03-05T02:05:39.366Z,100294.75
2023-03-05T02:08:48.003Z,100307.91
2023-03-05T02:11:56.478Z,100322.75
2023-03-05T02:15:04.272Z,100284.22
2023-03-05T02:18:13.679Z,100318.41
2023-03-05T02:21:35.311Z,100300.88
2023-03-05T02:24:43.933Z,100320.16
2023-03-05T02:28:14.266Z,100322.75
2023-03-05T02:31:19.812Z,100313.16
2023-03-05T02:34:34.303Z,100317.50
2023-03-05T02:37:56.296Z,100321.91
2023-03-05T02:41:12.267Z,100317.50
2023-03-05T02:44:20.408Z,100315.78
2023-03-05T02:47:29.794Z,100306.16
2023-03-05T02:50:44.478Z,100308.78
2023-03-05T02:53:46.346Z,100293.91
2023-03-05T02:57:01.296Z,100309.66
2023-03-05T03:00:11.434Z,100236.97
2023-03-05T03:03:26.376Z,100305.28
2023-03-05T03:06:28.224Z,100288.66
2023-03-05T03:09:43.318Z,100283.41
2023-03-05T03:12:52.284Z,100305.28
2023-03-05T03:16:04.194Z,100305.28
2023-03-05T03:19:12.333Z,100285.16
2023-03-05T03:22:20.854Z,100309.66
2023-03-05T03:25:29.322Z,100294.78
2023-03-05T03:28:37.950Z,100302.66
2023-03-05T03:31:46.330Z,100293.91
2023-03-05T03:35:02.326Z,100300.03
2023-03-05T03:38:10.763Z,100289.50
2023-03-05T03:41:25.310Z,100294.78
2023-03-05T03:44:27.038Z,100283.38
2023-03-05T03:47:41.329Z,100295.63
2023-03-05T03:50:56.326Z,100301.78
2023-03-05T03:54:04.958Z,100303.53
2023-03-05T03:57:13.597Z,100317.53
2023-03-05T04:00:22.349Z,100307.03
2023-03-05T04:03:30.337Z,100293.00
2023-03-05T04:06:46.293Z,100307.91
2023-03-05T04:10:01.308Z,100286.88
2023-03-05T04:13:09.914Z,100281.63
2023-03-05T04:16:24.330Z,100300.91
2023-03-05T04:19:26.234Z,100297.38
2023-03-05T04:22:41.336Z,100295.63
2023-03-05T04:25:42.955Z,100278.13
2023-03-05T04:28:57.305Z,100296.50
2023-03-05T04:32:05.404Z,100286.00
2023-03-05T04:35:13.801Z,100290.34
2023-03-05T04:38:35.329Z,100299.13
2023-03-05T04:41:44.293Z,100287.72
2023-03-05T04:44:59.323Z,100293.00
2023-03-05T04:48:08.973Z,100292.13
2023-03-05T04:51:17.502Z,100249.22
2023-03-05T04:54:25.954Z,100293.00
2023-03-05T04:57:34.315Z,100289.47
2023-03-05T05:00:42.886Z,100282.47
2023-03-05T05:03:51.341Z,100291.25
2023-03-05T05:07:06.281Z,100242.19
2023-03-05T05:10:16.335Z,100297.38
2023-03-05T05:13:25.117Z,100298.25
2023-03-05T05:16:39.304Z,100282.47
2023-03-05T05:19:47.584Z,100294.72
2023-03-05T05:22:55.962Z,100278.97
2023-03-05T05:26:06.286Z,100269.31
2023-03-05T05:29:21.493Z,100299.09
2023-03-05T05:32:30.422Z,100299.97
2023-03-05T05:35:39.739Z,100265.81
2023-03-05T05:38:54.369Z,100301.72
2023-03-05T05:42:09.353Z,100293.84
2023-03-05T05:45:11.954Z,100298.19
2023-03-05T05:48:26.448Z,100291.16
2023-03-05T05:51:41.341Z,100308.69
2023-03-05T05:54:43.126Z,100321.81
2023-03-05T05:57:57.461Z,100306.94
2023-03-05T06:00:59.354Z,100313.94
2023-03-05T06:04:14.321Z,100334.94
2023-03-05T06:07:16.105Z,100329.69
2023-03-05T06:10:30.472Z,100321.81
2023-03-05T06:13:39.370Z,100320.91
2023-03-05T06:16:48.335Z,100329.69
2023-03-05T06:19:56.349Z,100331.44
2023-03-05T06:23:13.593Z,100319.16
2023-03-05T06:26:18.722Z,100327.06
2023-03-05T06:29:33.309Z,100326.19
2023-03-05T06:32:35.542Z,100336.66
2023-03-05T06:35:52.053Z,100329.63
2023-03-05T06:39:07.690Z,100323.50
2023-03-05T06:42:22.316Z,100312.09
2023-03-05T06:45:23.998Z,100334.84
2023-03-05T06:48:38.353Z,100310.31
2023-03-05T06:51:53.345Z,100308.56
2023-03-05T06:55:02.106Z,100331.25
2023-03-05T06:58:10.418Z,100335.66
2023-03-05T07:01:20.433Z,100330.34
2023-03-05T07:04:29.357Z,100330.31
2023-03-05T07:07:38.048Z,100298.84
2023-03-05T07:10:48.970Z,100332.03
2023-03-05T07:13:57.493Z,100337.31
2023-03-05T07:17:27.369Z,100334.66
2023-03-05T07:20:36.353Z,100199.03
2023-03-05T07:23:45.309Z,100339.81
2023-03-05T07:26:53.526Z,100208.66
2023-03-05T07:30:21.848Z,100334.56
2023-03-05T07:33:38.316Z,100316.22
2023-03-05T07:37:00.317Z,100299.56
2023-03-05T07:40:17.313Z,100328.41
2023-03-05T07:43:32.381Z,100321.47
2023-03-05T07:46:34.484Z,100313.59
2023-03-05T07:50:10.413Z,100331.03
2023-03-05T07:53:41.392Z,100326.56
2023-03-05T07:57:29.972Z,100315.19
2023-03-05T08:00:58.316Z,100321.16
2023-03-05T08:04:14.485Z,100314.25
2023-03-05T08:07:22.877Z,100319.53
2023-03-05T08:10:31.365Z,100304.72
2023-03-05T08:13:47.640Z,100280.16
2023-03-05T08:16:50.309Z,100316.00
2023-03-05T08:20:06.378Z,100307.22
2023-03-05T08:23:29.706Z,100317.69
2023-03-05T08:27:24.324Z,100314.16
2023-03-05T08:30:26.269Z,100298.28
2023-03-05T08:34:03.427Z,100323.69
2023-03-05T08:37:18.385Z,100310.47
2023-03-05T08:40:54.439Z,100318.28
2023-03-05T08:44:03.262Z,100327.16
2023-03-05T08:47:18.358Z,100302.47
2023-03-05T08:50:31.725Z,100290.16
2023-03-05T08:53:50.448Z,100318.22
2023-03-05T08:57:06.424Z,100315.50
2023-03-05T09:00:41.346Z,100327.78
2023-03-05T09:03:43.836Z,100271.69
2023-03-05T09:07:18.368Z,100300.53
2023-03-05T09:11:07.678Z,100311.03
2023-03-05T09:14:22.416Z,100269.81
2023-03-05T09:17:47.349Z,100295.97
2023-03-05T09:21:12.341Z,100290.50
2023-03-05T09:24:40.990Z,100296.25
2023-03-05T09:28:09.357Z,100293.38
2023-03-05T09:31:25.521Z,100266.19
2023-03-05T09:34:27.204Z,100293.25
2023-03-05T09:37:45.402Z,100287.34
2023-03-05T09:41:13.261Z,100291.72
2023-03-05T09:44:48.419Z,100247.19
2023-03-05T09:48:26.376Z,100289.62
2023-03-05T09:52:01.784Z,100295.66
2023-03-05T09:55:40.438Z,100279.72
2023-03-05T09:59:52.365Z,100167.97
2023-03-05T10:03:05.495Z,100284.06
2023-03-05T10:06:30.349Z,100273.97
2023-03-05T10:09:54.884Z,100263.44
2023-03-05T10:13:08.369Z,100267.19
2023-03-05T10:16:36.849Z,100266.53
2023-03-05T10:20:12.350Z,100268.59
2023-03-05T10:23:27.137Z,100261.75
2023-03-05T10:26:58.449Z,100258.13
2023-03-05T10:30:30.573Z,100247.59
2023-03-05T10:33:53.993Z,100252.69
2023-03-05T10:37:30.487Z,100251.97
2023-03-05T10:40:54.364Z,100244.94
2023-03-05T10:44:19.808Z,100225.66
2023-03-05T10:47:57.396Z,100230.53
2023-03-05T10:51:27.632Z,100226.72
2023-03-05T10:54:32.970Z,100231.91
2023-03-05T10:57:47.406Z,100219.22
2023-03-05T11:01:06.509Z,100237.69
2023-03-05T11:04:35.595Z,100239.50
2023-03-05T11:08:41.348Z,100213.28
2023-03-05T11:26:31.688Z,100204.69
2023-03-05T11:29:49.126Z,100204.69
2023-03-05T11:33:15.740Z,100193.47
2023-03-05T11:36:31.188Z,100203.53
2023-03-05T11:39:42.719Z,100198.62
2023-03-05T11:43:02.689Z,100189.97
2023-03-05T11:46:11.812Z,100168.25
2023-03-05T11:49:25.507Z,100184.69
2023-03-05T11:52:53.002Z,100146.81
2023-03-05T12:00:11.563Z,100155.19
2023-03-05T12:08:11.747Z,100166.19
2023-03-05T12:24:47.443Z,100127.38
2023-03-05T12:36:55.786Z,100122.91
2023-03-05T12:40:50.790Z,100112.88
2023-03-05T12:44:21.026Z,100083.06
2023-03-05T12:52:33.880Z,100098.50
2023-03-05T12:56:29.814Z,100090.56
2023-03-05T13:00:15.769Z,100088.66
2023-03-05T13:03:54.911Z,100084.03
2023-03-05T13:07:48.959Z,100081.84
2023-03-05T13:11:48.904Z,100089.66
2023-03-05T13:42:47.876Z,100072.81
2023-03-05T14:23:41.897Z,100086.78
2023-03-05T15:27:33.526Z,100031.91
2023-03-05T15:31:34.960Z,100041.63
2023-03-05T15:35:32.037Z,100053.09
2023-03-05T15:39:17.005Z,100038.25
2023-03-05T15:43:13.841Z,100041.09
2023-03-05T17:32:41.315Z,100096.19
2023-03-05T17:51:48.462Z,100102.44
2023-03-05T18:24:50.631Z,100080.47
2023-03-05T18:28:01.468Z,100068.25
2023-03-05T18:31:09.671Z,100068.22
2023-03-05T18:34:18.081Z,100090.03
2023-03-05T18:52:35.994Z,100057.75
2023-03-05T18:56:32.777Z,100079.59
2023-03-05T19:00:38.023Z,100077.87
2023-03-05T19:04:26.156Z,100084.00
2023-03-05T19:08:01.802Z,100082.28
2023-03-05T19:11:47.872Z,100085.75
2023-03-05T19:19:20.557Z,100079.62
2023-03-05T19:23:11.767Z,100065.62
2023-03-05T19:27:31.073Z,99974.81
2023-03-05T19:38:54.540Z,100079.66
2023-03-05T19:46:10.164Z,100070.09
2023-03-05T19:53:49.816Z,100081.44
2023-03-05T20:01:48.970Z,100073.53
2023-03-05T20:17:41.802Z,100053.38
2023-03-05T20:29:09.893Z,99989.81
2023-03-05T20:36:27.796Z,100054.34
2023-03-05T20:43:53.788Z,100065.75
2023-03-05T20:59:30.094Z,100068.44
2023-03-05T21:03:04.663Z,100063.16
2023-03-05T21:26:31.807Z,100055.28
2023-03-05T21:30:00.046Z,100059.72
2023-03-05T21:33:31.849Z,100041.34
2023-03-05T21:49:14.581Z,100056.19
2023-03-05T21:52:56.242Z,100052.69
2023-03-05T21:56:30.621Z,100049.22
2023-03-05T22:20:37.988Z,100039.53
2023-03-05T22:24:33.229Z,100038.69
2023-03-05T22:32:12.651Z,100025.53
2023-03-05T22:35:54.298Z,100026.47
2023-03-05T22:39:48.913Z,100020.34
2023-03-05T22:43:36.685Z,100001.97
2023-03-05T22:47:32.925Z,100013.37
2023-03-05T22:51:21.707Z,99984.53
2023-03-05T23:03:00.197Z,100008.94
2023-03-05T23:06:47.890Z,100008.94
2023-03-05T23:10:46.821Z,100004.50
2023-03-05T23:14:49.777Z,100001.94
2023-03-05T23:18:40.334Z,100008.06
2023-03-05T23:30:15.086Z,99997.59
2023-03-05T23:33:49.955Z,99999.38
2023-03-05T23:37:42.051Z,100000.22
2023-03-05T23:45:19.609Z,99982.75
2023-03-05T23:48:47.937Z,99993.19
2023-03-05T23:55:59.418Z,99994.91
